createdAt,value
2022-09-24T00:00:28.116Z,95.90
2022-09-24T00:01:28.217Z,95.49
2022-09-24T00:02:28.166Z,95.39
2022-09-24T00:03:28.122Z,95.49
2022-09-24T00:04:28.106Z,95.49
2022-09-24T00:05:28.107Z,95.90
2022-09-24T00:06:28.102Z,95.49
2022-09-24T00:07:28.100Z,95.69
2022-09-24T00:08:28.101Z,95.49
2022-09-24T00:09:28.097Z,95.39
2022-09-24T00:10:28.100Z,95.18
2022-09-24T00:11:28.094Z,95.29
2022-09-24T00:12:28.099Z,94.68
2022-09-24T00:13:28.091Z,95.08
2022-09-24T00:14:28.094Z,95.08
2022-09-24T00:15:28.087Z,94.98
2022-09-24T00:16:28.202Z,95.13
2022-09-24T00:17:28.091Z,95.53
2022-09-24T00:18:28.082Z,95.03
2022-09-24T00:19:28.109Z,95.43
2022-09-24T00:20:28.082Z,95.13
2022-09-24T00:21:28.092Z,95.74
2022-09-24T00:22:28.080Z,95.33
2022-09-24T00:23:28.075Z,95.43
2022-09-24T00:24:28.076Z,95.03
2022-09-24T00:25:28.071Z,95.23
2022-09-24T00:26:28.069Z,95.03
2022-09-24T00:27:28.066Z,95.03
2022-09-24T00:28:28.066Z,95.33
2022-09-24T00:29:28.064Z,95.23
2022-09-24T00:30:28.064Z,95.33
2022-09-24T00:31:28.098Z,95.53
2022-09-24T00:32:28.060Z,95.28
2022-09-24T00:33:28.058Z,95.37
2022-09-24T00:34:28.068Z,95.33
2022-09-24T00:35:28.077Z,95.28
2022-09-24T00:36:28.073Z,95.64
2022-09-24T00:37:28.054Z,95.23
2022-09-24T00:38:28.051Z,95.07
2022-09-24T00:39:28.051Z,95.33
2022-09-24T00:40:28.088Z,95.64
2022-09-24T00:41:28.047Z,95.58
2022-09-24T00:42:28.043Z,95.23
2022-09-24T00:43:28.042Z,95.13
2022-09-24T00:44:28.051Z,95.53
2022-09-24T00:45:28.049Z,95.13
2022-09-24T00:46:28.082Z,95.17
2022-09-24T00:47:28.033Z,95.28
2022-09-24T00:48:28.036Z,95.28
2022-09-24T00:49:28.031Z,95.48
2022-09-24T00:50:28.029Z,95.37
2022-09-24T00:51:28.043Z,95.74
2022-09-24T00:52:28.027Z,95.64
2022-09-24T00:53:28.022Z,95.43
2022-09-24T00:54:28.026Z,95.53
2022-09-24T00:55:28.019Z,95.53
2022-09-24T00:56:28.022Z,95.23
2022-09-24T00:57:28.023Z,95.48
2022-09-24T00:58:28.015Z,94.97
2022-09-24T00:59:28.014Z,95.53
2022-09-24T01:00:28.120Z,95.17
2022-09-24T01:01:28.090Z,95.07
2022-09-24T01:02:28.093Z,95.43
2022-09-24T01:03:28.004Z,95.17
2022-09-24T01:04:28.005Z,95.84
2022-09-24T01:05:28.005Z,95.94
2022-09-24T01:06:28.002Z,95.58
2022-09-24T01:07:28.021Z,95.74
2022-09-24T01:08:28.004Z,95.94
2022-09-24T01:09:27.996Z,96.04
2022-09-24T01:10:27.994Z,95.94
2022-09-24T01:11:27.990Z,96.25
2022-09-24T01:12:27.992Z,95.64
2022-09-24T01:13:27.987Z,95.84
2022-09-24T01:14:28.042Z,96.04
2022-09-24T01:15:27.989Z,95.74
2022-09-24T01:16:28.201Z,96.25
2022-09-24T01:17:27.981Z,95.94
2022-09-24T01:18:27.982Z,96.15
2022-09-24T01:19:27.980Z,96.45
2022-09-24T01:20:27.987Z,96.45
2022-09-24T01:21:27.981Z,96.04
2022-09-24T01:22:27.985Z,96.04
2022-09-24T01:23:28.157Z,95.94
2022-09-24T01:24:27.968Z,95.84
2022-09-24T01:25:27.973Z,95.84
2022-09-24T01:26:27.974Z,96.04
2022-09-24T01:27:27.963Z,96.04
2022-09-24T01:28:27.964Z,95.94
2022-09-24T01:29:27.964Z,95.94
2022-09-24T01:30:27.959Z,96.15
2022-09-24T01:31:28.066Z,96.04
2022-09-24T01:32:32.337Z,95.53
2022-09-24T01:33:27.956Z,95.94
2022-09-24T01:34:27.954Z,96.25
2022-09-24T01:35:27.951Z,96.15
2022-09-24T01:36:27.950Z,96.35
2022-09-24T01:37:27.948Z,96.15
2022-09-24T01:38:27.947Z,96.45
2022-09-24T01:39:28.365Z,96.25
2022-09-24T01:40:28.040Z,96.35
2022-09-24T01:41:27.942Z,96.25
2022-09-24T01:42:27.946Z,96.25
2022-09-24T01:43:27.934Z,96.15
2022-09-24T01:44:27.940Z,96.25
2022-09-24T01:45:27.931Z,96.35
2022-09-24T01:46:28.014Z,96.25
2022-09-24T01:47:32.189Z,96.35
2022-09-24T01:48:27.931Z,96.45
2022-09-24T01:49:27.927Z,96.35
2022-09-24T01:50:27.923Z,95.94
2022-09-24T01:51:27.926Z,96.35
2022-09-24T01:52:27.920Z,96.25
2022-09-24T01:53:27.918Z,96.25
2022-09-24T01:54:27.917Z,96.25
2022-09-24T01:55:27.937Z,96.15
2022-09-24T01:56:27.917Z,95.94
2022-09-24T01:57:27.914Z,96.35
2022-09-24T01:58:27.916Z,95.94
2022-09-24T01:59:27.912Z,95.94
2022-09-24T02:00:28.078Z,96.35
2022-09-24T02:01:27.979Z,96.04
2022-09-24T02:02:27.997Z,96.04
2022-09-24T02:03:27.904Z,96.04
2022-09-24T02:04:27.900Z,95.84
2022-09-24T02:05:27.899Z,95.84
2022-09-24T02:06:27.896Z,96.15
2022-09-24T02:07:27.894Z,95.94
2022-09-24T02:08:27.893Z,96.04
2022-09-24T02:09:27.894Z,95.84
2022-09-24T02:10:27.889Z,95.94
2022-09-24T02:11:27.932Z,96.15
2022-09-24T02:12:27.891Z,95.74
2022-09-24T02:13:27.894Z,95.64
2022-09-24T02:14:27.883Z,95.94
2022-09-24T02:15:32.259Z,95.94
2022-09-24T02:16:27.962Z,95.94
2022-09-24T02:17:27.884Z,95.53
2022-09-24T02:18:27.878Z,95.94
2022-09-24T02:19:27.883Z,95.94
2022-09-24T02:20:27.873Z,95.84
2022-09-24T02:21:27.874Z,95.74
2022-09-24T02:22:27.871Z,95.94
2022-09-24T02:23:27.869Z,96.04
2022-09-24T02:24:27.867Z,96.04
2022-09-24T02:25:27.865Z,95.64
2022-09-24T02:26:27.875Z,95.84
2022-09-24T02:27:27.879Z,95.84
2022-09-24T02:28:27.860Z,96.45
2022-09-24T02:29:27.858Z,96.04
2022-09-24T02:30:27.856Z,96.04
2022-09-24T02:31:27.934Z,95.53
2022-09-24T02:32:27.857Z,95.33
2022-09-24T02:33:27.857Z,95.84
2022-09-24T02:34:27.851Z,96.04
2022-09-24T02:35:27.852Z,95.94
2022-09-24T02:36:27.844Z,95.84
2022-09-24T02:37:27.847Z,96.04
2022-09-24T02:38:27.844Z,96.04
2022-09-24T02:39:27.841Z,95.84
2022-09-24T02:40:27.889Z,96.25
2022-09-24T02:41:27.839Z,95.90
2022-09-24T02:42:27.843Z,96.35
2022-09-24T02:43:33.826Z,96.45
2022-09-24T02:44:28.252Z,96.15
2022-09-24T02:45:27.834Z,96.04
2022-09-24T02:46:27.899Z,96.10
2022-09-24T02:47:27.827Z,96.45
2022-09-24T02:48:27.831Z,96.35
2022-09-24T02:49:27.831Z,96.45
2022-09-24T02:50:27.823Z,96.35
2022-09-24T02:51:27.828Z,96.15
2022-09-24T02:52:27.819Z,96.15
2022-09-24T02:53:27.820Z,96.45
2022-09-24T02:54:27.818Z,96.35
2022-09-24T02:55:27.816Z,96.66
2022-09-24T02:56:27.813Z,96.76
2022-09-24T02:57:27.811Z,96.86
2022-09-24T02:58:27.807Z,97.37
2022-09-24T02:59:27.804Z,97.27
2022-09-24T03:00:27.912Z,96.76
2022-09-24T03:01:27.857Z,97.37
2022-09-24T03:02:27.924Z,96.55
2022-09-24T03:03:27.799Z,96.76
2022-09-24T03:04:27.800Z,96.66
2022-09-24T03:05:27.804Z,96.55
2022-09-24T03:06:27.796Z,96.86
2022-09-24T03:07:27.798Z,96.86
2022-09-24T03:08:27.792Z,96.76
2022-09-24T03:09:27.790Z,96.45
2022-09-24T03:10:27.793Z,96.86
2022-09-24T03:11:27.786Z,96.35
2022-09-24T03:12:27.783Z,96.66
2022-09-24T03:13:27.787Z,96.15
2022-09-24T03:14:27.780Z,96.35
2022-09-24T03:15:27.779Z,96.45
2022-09-24T03:16:27.910Z,95.94
2022-09-24T03:17:27.780Z,95.94
2022-09-24T03:18:27.777Z,96.45
2022-09-24T03:19:27.781Z,96.15
2022-09-24T03:20:27.768Z,96.45
2022-09-24T03:21:27.771Z,96.25
2022-09-24T03:22:27.772Z,96.45
2022-09-24T03:23:27.767Z,96.04
2022-09-24T03:24:27.763Z,96.15
2022-09-24T03:25:27.776Z,96.04
2022-09-24T03:26:27.759Z,96.15
2022-09-24T03:27:27.760Z,95.84
2022-09-24T03:28:27.759Z,95.94
2022-09-24T03:29:27.756Z,95.84
2022-09-24T03:30:27.756Z,95.53
2022-09-24T03:31:27.850Z,95.94
2022-09-24T03:32:27.786Z,96.15
2022-09-24T03:33:27.751Z,95.69
2022-09-24T03:34:27.748Z,95.43
2022-09-24T03:35:27.749Z,95.03
2022-09-24T03:36:27.743Z,95.53
2022-09-24T03:37:27.749Z,95.13
2022-09-24T03:38:27.746Z,95.53
2022-09-24T03:39:27.741Z,95.13
2022-09-24T03:40:27.808Z,95.23
2022-09-24T03:41:27.821Z,95.74
2022-09-24T03:42:27.737Z,95.23
2022-09-24T03:43:27.737Z,95.74
2022-09-24T03:44:27.735Z,95.53
2022-09-24T03:45:27.732Z,95.53
2022-09-24T03:46:27.805Z,95.53
2022-09-24T03:47:27.727Z,95.23
2022-09-24T03:48:27.743Z,95.23
2022-09-24T03:49:27.727Z,95.23
2022-09-24T03:50:27.733Z,95.13
2022-09-24T03:51:27.730Z,95.03
2022-09-24T03:52:27.716Z,94.62
2022-09-24T03:53:27.718Z,94.46
2022-09-24T03:54:27.718Z,95.03
2022-09-24T03:55:27.713Z,94.46
2022-09-24T03:56:27.711Z,94.35
2022-09-24T03:57:27.711Z,94.26
2022-09-24T03:58:27.716Z,93.95
2022-09-24T03:59:27.723Z,94.76
2022-09-24T04:00:27.706Z,94.66
2022-09-24T04:01:27.760Z,94.87
2022-09-24T04:02:27.769Z,94.76
2022-09-24T04:03:27.702Z,94.76
2022-09-24T04:04:27.715Z,94.66
2022-09-24T04:05:27.699Z,94.91
2022-09-24T04:06:27.698Z,95.01
2022-09-24T04:07:27.694Z,94.60
2022-09-24T04:08:27.689Z,94.40
2022-09-24T04:09:27.692Z,94.60
2022-09-24T04:10:27.687Z,94.91
2022-09-24T04:11:27.690Z,95.01
2022-09-24T04:12:27.682Z,95.01
2022-09-24T04:13:27.683Z,95.21
2022-09-24T04:14:27.684Z,95.01
2022-09-24T04:15:27.684Z,95.52
2022-09-24T04:16:27.747Z,95.83
2022-09-24T04:17:27.674Z,95.52
2022-09-24T04:18:27.674Z,95.42
2022-09-24T04:19:27.671Z,95.62
2022-09-24T04:20:27.688Z,95.73
2022-09-24T04:21:27.666Z,96.14
2022-09-24T04:22:27.674Z,95.62
2022-09-24T04:23:27.661Z,96.14
2022-09-24T04:24:27.662Z,95.93
2022-09-24T04:25:27.662Z,96.14
2022-09-24T04:26:27.656Z,95.89
2022-09-24T04:27:27.660Z,96.09
2022-09-24T04:28:27.653Z,96.14
2022-09-24T04:29:27.656Z,96.14
2022-09-24T04:30:27.662Z,96.14
2022-09-24T04:31:27.777Z,96.39
2022-09-24T04:32:27.649Z,96.30
2022-09-24T04:33:27.646Z,96.14
2022-09-24T04:34:27.642Z,96.30
2022-09-24T04:35:27.645Z,95.98
2022-09-24T04:36:27.658Z,96.39
2022-09-24T04:37:27.637Z,96.39
2022-09-24T04:38:27.634Z,95.89
2022-09-24T04:39:27.636Z,96.09
2022-09-24T04:40:27.714Z,95.68
2022-09-24T04:41:27.633Z,95.58
2022-09-24T04:42:27.630Z,95.98
2022-09-24T04:43:27.626Z,95.58
2022-09-24T04:44:27.623Z,95.78
2022-09-24T04:45:27.622Z,96.14
2022-09-24T04:46:27.689Z,95.37
2022-09-24T04:47:27.628Z,95.58
2022-09-24T04:48:27.627Z,95.62
2022-09-24T04:49:27.821Z,95.48
2022-09-24T04:50:27.617Z,95.78
2022-09-24T04:51:27.612Z,95.48
2022-09-24T04:52:27.663Z,95.58
2022-09-24T04:53:27.610Z,95.89
2022-09-24T04:54:27.608Z,95.78
2022-09-24T04:55:27.605Z,96.09
2022-09-24T04:56:27.601Z,96.09
2022-09-24T04:57:27.603Z,95.98
2022-09-24T04:58:27.604Z,95.98
2022-09-24T04:59:27.620Z,96.19
2022-09-24T05:00:27.601Z,95.93
2022-09-24T05:01:27.648Z,95.83
2022-09-24T05:02:27.694Z,95.83
2022-09-24T05:03:27.594Z,95.78
2022-09-24T05:04:27.588Z,95.62
2022-09-24T05:05:27.590Z,95.37
2022-09-24T05:06:27.585Z,95.48
2022-09-24T05:07:27.589Z,95.73
2022-09-24T05:08:27.597Z,95.58
2022-09-24T05:09:27.581Z,95.48
2022-09-24T05:10:27.580Z,95.68
2022-09-24T05:11:27.577Z,95.28
2022-09-24T05:12:27.572Z,95.48
2022-09-24T05:13:27.571Z,95.58
2022-09-24T05:14:27.570Z,95.48
2022-09-24T05:15:27.570Z,95.58
2022-09-24T05:16:27.641Z,95.17
2022-09-24T05:17:27.568Z,95.07
2022-09-24T05:18:27.565Z,95.68
2022-09-24T05:19:27.562Z,95.37
2022-09-24T05:20:27.562Z,95.83
2022-09-24T05:21:27.559Z,95.78
2022-09-24T05:22:27.562Z,95.78
2022-09-24T05:23:27.554Z,95.68
2022-09-24T05:24:27.568Z,96.09
2022-09-24T05:25:27.563Z,95.62
2022-09-24T05:26:27.554Z,96.30
2022-09-24T05:27:27.547Z,95.98
2022-09-24T05:28:27.544Z,95.89
2022-09-24T05:29:27.541Z,95.93
2022-09-24T05:30:27.543Z,95.98
2022-09-24T05:31:27.622Z,96.19
2022-09-24T05:32:27.535Z,96.09
2022-09-24T05:33:27.536Z,96.09
2022-09-24T05:34:27.533Z,96.39
2022-09-24T05:35:27.529Z,96.39
2022-09-24T05:36:27.525Z,96.14
2022-09-24T05:37:27.528Z,96.09
2022-09-24T05:38:27.526Z,96.50
2022-09-24T05:39:32.802Z,96.03
2022-09-24T05:40:27.615Z,96.30
2022-09-24T05:41:27.521Z,96.09
2022-09-24T05:42:27.517Z,95.42
2022-09-24T05:43:27.517Z,95.58
2022-09-24T05:44:27.514Z,96.09
2022-09-24T05:45:27.515Z,96.09
2022-09-24T05:46:27.576Z,96.09
2022-09-24T05:47:27.511Z,96.09
2022-09-24T05:48:27.506Z,95.98
2022-09-24T05:49:27.532Z,95.78
2022-09-24T05:50:27.659Z,96.09
2022-09-24T05:51:27.524Z,95.89
2022-09-24T05:52:27.501Z,96.09
2022-09-24T05:53:27.499Z,96.50
2022-09-24T05:54:27.502Z,96.19
2022-09-24T05:55:32.070Z,96.09
2022-09-24T05:56:27.512Z,96.09
2022-09-24T05:57:27.497Z,96.30
2022-09-24T05:58:27.496Z,96.30
2022-09-24T05:59:27.490Z,96.19
2022-09-24T06:00:27.505Z,95.98
2022-09-24T06:01:27.544Z,95.98
2022-09-24T06:02:27.485Z,96.30
2022-09-24T06:03:27.503Z,96.09
2022-09-24T06:04:27.480Z,96.39
2022-09-24T06:05:27.478Z,95.98
2022-09-24T06:06:27.479Z,96.09
2022-09-24T06:07:27.474Z,96.30
2022-09-24T06:08:27.481Z,96.39
2022-09-24T06:09:27.470Z,96.09
2022-09-24T06:10:27.589Z,96.39
2022-09-24T06:11:27.468Z,96.39
2022-09-24T06:12:27.487Z,96.04
2022-09-24T06:13:27.463Z,96.45
2022-09-24T06:14:27.464Z,96.50
2022-09-24T06:15:27.569Z,96.30
2022-09-24T06:16:27.560Z,96.35
2022-09-24T06:17:27.459Z,96.19
2022-09-24T06:18:27.459Z,96.30
2022-09-24T06:19:27.454Z,96.66
2022-09-24T06:20:27.533Z,96.70
2022-09-24T06:21:27.451Z,96.45
2022-09-24T06:22:28.728Z,96.80
2022-09-24T06:23:27.444Z,96.70
2022-09-24T06:24:27.445Z,97.52
2022-09-24T06:25:27.443Z,97.00
2022-09-24T06:26:27.442Z,97.27
2022-09-24T06:27:27.437Z,97.27
2022-09-24T06:28:27.456Z,96.96
2022-09-24T06:29:27.438Z,97.41
2022-09-24T06:30:27.434Z,97.41
2022-09-24T06:31:27.497Z,97.27
2022-09-24T06:32:27.437Z,97.21
2022-09-24T06:33:27.430Z,97.31
2022-09-24T06:34:27.431Z,97.21
2022-09-24T06:35:27.425Z,97.21
2022-09-24T06:36:27.427Z,97.52
2022-09-24T06:37:27.421Z,96.91
2022-09-24T06:38:27.424Z,97.21
2022-09-24T06:39:27.417Z,97.11
2022-09-24T06:40:29.408Z,97.31
2022-09-24T06:41:27.415Z,96.86
2022-09-24T06:42:27.413Z,97.06
2022-09-24T06:43:27.414Z,97.16
2022-09-24T06:44:27.516Z,97.11
2022-09-24T06:45:27.409Z,97.21
2022-09-24T06:46:27.474Z,96.96
2022-09-24T06:47:27.406Z,97.21
2022-09-24T06:48:27.407Z,96.91
2022-09-24T06:49:32.979Z,97.06
2022-09-24T06:50:27.401Z,97.47
2022-09-24T06:51:27.596Z,97.78
2022-09-24T06:52:27.397Z,97.62
2022-09-24T06:53:27.393Z,97.47
2022-09-24T06:54:27.394Z,97.57
2022-09-24T06:55:27.390Z,97.47
2022-09-24T06:56:27.389Z,97.57
2022-09-24T06:57:29.101Z,97.27
2022-09-24T06:58:27.391Z,97.37
2022-09-24T06:59:27.387Z,97.37
2022-09-24T07:00:27.405Z,96.96
2022-09-24T07:01:27.478Z,97.27
2022-09-24T07:02:27.494Z,97.06
2022-09-24T07:03:27.375Z,97.47
2022-09-24T07:04:27.378Z,97.57
2022-09-24T07:05:27.373Z,97.88
2022-09-24T07:06:27.374Z,97.78
2022-09-24T07:07:27.368Z,97.67
2022-09-24T07:08:27.371Z,97.67
2022-09-24T07:09:27.367Z,97.78
2022-09-24T07:10:27.370Z,97.16
2022-09-24T07:11:27.364Z,97.47
2022-09-24T07:12:27.364Z,97.47
2022-09-24T07:13:27.362Z,97.27
2022-09-24T07:14:27.361Z,97.27
2022-09-24T07:15:27.356Z,97.06
2022-09-24T07:16:27.453Z,97.37
2022-09-24T07:17:32.903Z,97.27
2022-09-24T07:18:27.364Z,97.16
2022-09-24T07:19:27.349Z,97.47
2022-09-24T07:20:27.351Z,97.88
2022-09-24T07:21:27.348Z,97.06
2022-09-24T07:22:27.350Z,97.27
2022-09-24T07:23:27.344Z,97.27
2022-09-24T07:24:27.345Z,97.06
2022-09-24T07:25:27.342Z,97.21
2022-09-24T07:26:27.345Z,97.06
2022-09-24T07:27:27.337Z,97.06
2022-09-24T07:28:27.342Z,97.06
2022-09-24T07:29:27.337Z,97.06
2022-09-24T07:30:27.339Z,97.06
2022-09-24T07:31:27.382Z,97.16
2022-09-24T07:32:29.997Z,96.96
2022-09-24T07:33:27.328Z,96.96
2022-09-24T07:34:27.331Z,97.78
2022-09-24T07:35:27.326Z,97.57
2022-09-24T07:36:27.329Z,97.37
2022-09-24T07:37:27.321Z,97.57
2022-09-24T07:38:27.326Z,97.47
2022-09-24T07:39:27.318Z,97.27
2022-09-24T07:40:27.333Z,97.47
2022-09-24T07:41:27.315Z,97.53
2022-09-24T07:42:27.318Z,97.32
2022-09-24T07:43:27.311Z,97.32
2022-09-24T07:44:27.313Z,97.27
2022-09-24T07:45:27.310Z,97.73
2022-09-24T07:46:27.385Z,97.22
2022-09-24T07:47:27.306Z,97.12
2022-09-24T07:48:27.329Z,97.53
2022-09-24T07:49:27.303Z,97.42
2022-09-24T07:50:27.319Z,97.53
2022-09-24T07:51:27.710Z,97.42
2022-09-24T07:52:27.303Z,97.42
2022-09-24T07:53:27.302Z,97.53
2022-09-24T07:54:27.298Z,97.73
2022-09-24T07:55:27.294Z,97.53
2022-09-24T07:56:27.294Z,97.63
2022-09-24T07:57:27.293Z,97.63
2022-09-24T07:58:27.310Z,97.58
2022-09-24T07:59:27.290Z,97.17
2022-09-24T08:00:27.290Z,97.07
2022-09-24T08:01:27.350Z,97.28
2022-09-24T08:02:27.292Z,97.73
2022-09-24T08:03:27.343Z,97.48
2022-09-24T08:04:27.305Z,97.58
2022-09-24T08:05:27.279Z,97.28
2022-09-24T08:06:27.286Z,97.28
2022-09-24T08:07:27.276Z,97.17
2022-09-24T08:08:27.278Z,97.38
2022-09-24T08:09:27.276Z,96.87
2022-09-24T08:10:27.277Z,97.07
2022-09-24T08:11:27.272Z,97.07
2022-09-24T08:12:27.285Z,97.17
2022-09-24T08:13:28.056Z,97.07
2022-09-24T08:14:27.268Z,97.53
2022-09-24T08:15:27.265Z,97.78
2022-09-24T08:16:27.377Z,97.78
2022-09-24T08:17:27.263Z,97.58
2022-09-24T08:18:27.264Z,98.19
2022-09-24T08:19:27.258Z,98.30
2022-09-24T08:20:27.282Z,98.25
2022-09-24T08:21:27.255Z,98.25
2022-09-24T08:22:27.257Z,98.19
2022-09-24T08:23:27.255Z,98.19
2022-09-24T08:24:27.261Z,98.14
2022-09-24T08:25:27.257Z,98.35
2022-09-24T08:26:27.255Z,97.99
2022-09-24T08:27:27.247Z,97.99
2022-09-24T08:28:27.251Z,98.19
2022-09-24T08:29:27.245Z,98.50
2022-09-24T08:30:27.247Z,97.89
2022-09-24T08:31:27.280Z,97.69
2022-09-24T08:32:27.245Z,97.69
2022-09-24T08:33:27.241Z,96.97
2022-09-24T08:34:27.249Z,97.58
2022-09-24T08:35:27.239Z,97.58
2022-09-24T08:36:27.286Z,97.69
2022-09-24T08:37:27.235Z,97.58
2022-09-24T08:38:27.247Z,97.58
2022-09-24T08:39:27.235Z,97.64
2022-09-24T08:40:27.283Z,97.78
2022-09-24T08:41:27.229Z,97.58
2022-09-24T08:42:27.231Z,97.78
2022-09-24T08:43:27.226Z,98.39
2022-09-24T08:44:27.234Z,98.14
2022-09-24T08:45:27.225Z,98.14
2022-09-24T08:46:27.314Z,98.25
2022-09-24T08:47:27.227Z,98.55
2022-09-24T08:48:27.221Z,98.19
2022-09-24T08:49:27.220Z,98.30
2022-09-24T08:50:27.219Z,97.89
2022-09-24T08:51:32.739Z,98.25
2022-09-24T08:52:27.235Z,98.55
2022-09-24T08:53:27.213Z,98.55
2022-09-24T08:54:27.213Z,97.89
2022-09-24T08:55:27.210Z,98.25
2022-09-24T08:56:27.215Z,98.05
2022-09-24T08:57:27.219Z,97.74
2022-09-24T08:58:27.213Z,97.64
2022-09-24T08:59:27.204Z,97.74
2022-09-24T09:00:27.220Z,98.05
2022-09-24T09:01:27.296Z,97.84
2022-09-24T09:02:27.384Z,98.14
2022-09-24T09:03:27.202Z,97.94
2022-09-24T09:04:27.199Z,98.45
2022-09-24T09:05:27.197Z,98.14
2022-09-24T09:06:27.204Z,97.94
2022-09-24T09:07:27.194Z,97.94
2022-09-24T09:08:54.646Z,97.94
2022-09-24T09:09:27.192Z,97.84
2022-09-24T09:10:27.217Z,97.94
2022-09-24T09:11:27.191Z,97.94
2022-09-24T09:12:27.195Z,98.05
2022-09-24T09:13:27.185Z,97.89
2022-09-24T09:14:31.303Z,98.14
2022-09-24T09:15:27.185Z,98.14
2022-09-24T09:16:27.250Z,98.05
2022-09-24T09:17:27.185Z,97.84
2022-09-24T09:18:27.187Z,98.30
2022-09-24T09:19:27.181Z,97.74
2022-09-24T09:20:27.177Z,97.80
2022-09-24T09:21:27.178Z,97.84
2022-09-24T09:22:27.178Z,97.39
2022-09-24T09:23:27.172Z,97.74
2022-09-24T09:24:27.283Z,97.60
2022-09-24T09:25:27.172Z,97.53
2022-09-24T09:26:27.173Z,97.74
2022-09-24T09:27:27.166Z,97.60
2022-09-24T09:28:27.167Z,97.74
2022-09-24T09:29:27.171Z,97.49
2022-09-24T09:30:27.167Z,97.29
2022-09-24T09:31:27.222Z,96.88
2022-09-24T09:32:27.162Z,97.19
2022-09-24T09:33:27.158Z,96.98
2022-09-24T09:34:27.161Z,97.49
2022-09-24T09:35:27.173Z,97.49
2022-09-24T09:36:27.163Z,98.41
2022-09-24T09:37:27.157Z,98.00
2022-09-24T09:38:27.155Z,98.10
2022-09-24T09:39:27.167Z,97.69
2022-09-24T09:40:31.648Z,97.14
2022-09-24T09:41:27.148Z,97.08
2022-09-24T09:42:27.154Z,96.83
2022-09-24T09:43:27.157Z,97.24
2022-09-24T09:44:27.148Z,97.24
2022-09-24T09:45:28.234Z,97.24
2022-09-24T09:46:27.263Z,97.04
2022-09-24T09:47:27.144Z,97.04
2022-09-24T09:48:27.143Z,97.44
2022-09-24T09:49:27.139Z,97.44
2022-09-24T09:50:27.140Z,97.65
2022-09-24T09:51:27.286Z,97.50
2022-09-24T09:52:27.145Z,97.50
2022-09-24T09:53:27.133Z,97.40
2022-09-24T09:54:27.142Z,96.79
2022-09-24T09:55:27.133Z,96.99
2022-09-24T09:56:27.155Z,96.99
2022-09-24T09:57:27.129Z,97.09
2022-09-24T09:58:27.155Z,96.99
2022-09-24T09:59:29.688Z,96.89
2022-09-24T10:00:27.140Z,96.99
2022-09-24T10:01:27.148Z,96.99
2022-09-24T10:02:27.348Z,97.20
2022-09-24T10:03:27.212Z,97.05
2022-09-24T10:04:27.134Z,97.09
2022-09-24T10:05:27.610Z,97.30
2022-09-24T10:06:27.126Z,97.30
2022-09-24T10:07:27.139Z,97.60
2022-09-24T10:08:27.121Z,97.40
2022-09-24T10:09:27.122Z,96.54
2022-09-24T10:10:27.121Z,96.64
2022-09-24T10:11:27.113Z,96.79
2022-09-24T10:12:27.133Z,96.75
2022-09-24T10:13:27.114Z,96.75
2022-09-24T10:14:27.112Z,96.54
2022-09-24T10:15:27.108Z,96.38
2022-09-24T10:16:27.177Z,96.28
2022-09-24T10:17:27.105Z,95.87
2022-09-24T10:18:27.109Z,95.78
2022-09-24T10:19:27.105Z,95.98
2022-09-24T10:20:27.102Z,95.26
2022-09-24T10:21:28.390Z,95.67
2022-09-24T10:22:27.107Z,95.67
2022-09-24T10:23:27.102Z,95.47
2022-09-24T10:24:27.106Z,95.47
2022-09-24T10:25:27.127Z,95.67
2022-09-24T10:26:27.095Z,95.67
2022-09-24T10:27:27.097Z,95.37
2022-09-24T10:28:27.114Z,95.57
2022-09-24T10:29:27.115Z,95.57
2022-09-24T10:30:27.118Z,95.78
2022-09-24T10:31:27.175Z,95.47
2022-09-24T10:32:27.098Z,95.73
2022-09-24T10:33:27.092Z,95.83
2022-09-24T10:34:27.116Z,95.94
2022-09-24T10:35:27.093Z,95.63
2022-09-24T10:36:27.088Z,95.94
2022-09-24T10:37:27.111Z,95.83
2022-09-24T10:38:27.082Z,95.94
2022-09-24T10:39:27.085Z,96.34
2022-09-24T10:40:27.113Z,95.98
2022-09-24T10:41:27.083Z,96.18
2022-09-24T10:42:27.082Z,95.67
2022-09-24T10:43:27.082Z,95.73
2022-09-24T10:44:27.184Z,95.73
2022-09-24T10:45:27.080Z,95.53
2022-09-24T10:46:27.138Z,95.94
2022-09-24T10:47:27.078Z,95.94
2022-09-24T10:48:27.075Z,95.53
2022-09-24T10:49:27.072Z,95.63
2022-09-24T10:50:27.070Z,95.63
2022-09-24T10:51:29.338Z,96.03
2022-09-24T10:52:27.067Z,96.14
2022-09-24T10:53:27.075Z,96.34
2022-09-24T10:54:27.069Z,96.34
2022-09-24T10:55:27.066Z,96.14
2022-09-24T10:56:27.065Z,96.23
2022-09-24T10:57:27.071Z,96.34
2022-09-24T10:58:27.063Z,96.23
2022-09-24T10:59:27.065Z,96.64
2022-09-24T11:00:27.079Z,96.54
2022-09-24T11:01:27.188Z,96.75
2022-09-24T11:02:27.095Z,96.75
2022-09-24T11:03:27.058Z,96.95
2022-09-24T11:04:27.063Z,96.75
2022-09-24T11:05:27.056Z,96.14
2022-09-24T11:06:27.053Z,96.44
2022-09-24T11:07:27.052Z,96.34
2022-09-24T11:08:27.076Z,96.14
2022-09-24T11:09:27.053Z,96.14
2022-09-24T11:10:27.049Z,96.23
2022-09-24T11:11:27.050Z,96.23
2022-09-24T11:12:27.048Z,96.09
2022-09-24T11:13:27.047Z,96.30
2022-09-24T11:14:27.047Z,96.09
2022-09-24T11:15:27.045Z,96.19
2022-09-24T11:16:27.124Z,95.99
2022-09-24T11:17:27.049Z,95.99
2022-09-24T11:18:27.041Z,95.89
2022-09-24T11:19:27.044Z,95.99
2022-09-24T11:20:27.040Z,96.19
2022-09-24T11:21:27.040Z,96.30
2022-09-24T11:22:27.043Z,96.30
2022-09-24T11:23:27.040Z,96.09
2022-09-24T11:24:27.036Z,96.09
2022-09-24T11:25:27.037Z,96.39
2022-09-24T11:26:27.034Z,95.99
2022-09-24T11:27:27.041Z,95.48
2022-09-24T11:28:27.035Z,95.58
2022-09-24T11:29:27.033Z,95.64
2022-09-24T11:30:27.032Z,95.54
2022-09-24T11:31:27.081Z,95.38
2022-09-24T11:32:27.044Z,95.38
2022-09-24T11:33:27.030Z,95.18
2022-09-24T11:34:27.031Z,95.18
2022-09-24T11:35:27.024Z,94.73
2022-09-24T11:36:27.022Z,94.87
2022-09-24T11:37:27.024Z,94.83
2022-09-24T11:38:27.022Z,94.77
2022-09-24T11:39:27.023Z,94.57
2022-09-24T11:40:27.100Z,95.28
2022-09-24T11:41:27.023Z,94.83
2022-09-24T11:42:27.018Z,94.93
2022-09-24T11:43:27.020Z,94.62
2022-09-24T11:44:27.026Z,95.03
2022-09-24T11:45:27.018Z,94.62
2022-09-24T11:46:27.062Z,94.93
2022-09-24T11:47:27.014Z,94.87
2022-09-24T11:48:27.031Z,94.93
2022-09-24T11:49:27.013Z,94.98
2022-09-24T11:50:27.011Z,94.87
2022-09-24T11:51:27.011Z,94.98
2022-09-24T11:52:27.006Z,95.03
2022-09-24T11:53:27.008Z,94.67
2022-09-24T11:54:27.007Z,94.77
2022-09-24T11:55:27.004Z,94.77
2022-09-24T11:56:27.008Z,94.98
2022-09-24T11:57:27.005Z,94.98
2022-09-24T11:58:27.015Z,94.87
2022-09-24T11:59:27.003Z,94.98
2022-09-24T12:00:27.008Z,95.03
2022-09-24T12:01:27.082Z,94.57
2022-09-24T12:02:27.096Z,94.57
2022-09-24T12:03:27.043Z,94.37
2022-09-24T12:04:27.011Z,94.87
2022-09-24T12:05:27.001Z,94.83
2022-09-24T12:06:27.002Z,94.73
2022-09-24T12:07:26.998Z,94.42
2022-09-24T12:08:26.994Z,92.90
2022-09-24T12:09:26.993Z,92.84
2022-09-24T12:10:26.992Z,92.80
2022-09-24T12:11:26.992Z,92.70
2022-09-24T12:12:26.990Z,92.80
2022-09-24T12:13:26.989Z,92.90
2022-09-24T12:14:27.007Z,92.70
2022-09-24T12:15:27.001Z,92.80
2022-09-24T12:16:27.045Z,92.90
2022-09-24T12:17:26.986Z,93.16
2022-09-24T12:18:26.985Z,94.32
2022-09-24T12:19:26.985Z,94.18
2022-09-24T12:20:27.000Z,93.67
2022-09-24T12:21:26.981Z,94.62
2022-09-24T12:22:26.979Z,93.97
2022-09-24T12:23:26.979Z,94.68
2022-09-24T12:24:26.976Z,93.97
2022-09-24T12:25:26.990Z,94.18
2022-09-24T12:26:26.986Z,93.77
2022-09-24T12:27:26.986Z,93.77
2022-09-24T12:28:26.975Z,94.98
2022-09-24T12:29:26.973Z,94.78
2022-09-24T12:30:26.969Z,93.46
2022-09-24T12:31:27.017Z,92.96
2022-09-24T12:32:26.969Z,92.86
2022-09-24T12:33:26.971Z,92.70
2022-09-24T12:34:26.978Z,92.96
2022-09-24T12:35:26.970Z,93.16
2022-09-24T12:36:26.997Z,93.46
2022-09-24T12:37:26.982Z,93.37
2022-09-24T12:38:26.966Z,93.46
2022-09-24T12:39:26.965Z,93.37
2022-09-24T12:40:27.006Z,93.67
2022-09-24T12:41:26.977Z,93.26
2022-09-24T12:42:26.972Z,92.86
2022-09-24T12:43:26.988Z,92.25
2022-09-24T12:44:26.957Z,92.65
2022-09-24T12:45:26.962Z,91.89
2022-09-24T12:46:27.066Z,92.09
2022-09-24T12:47:26.963Z,91.38
2022-09-24T12:48:26.956Z,91.68
2022-09-24T12:49:26.969Z,92.25
2022-09-24T12:50:26.961Z,92.25
2022-09-24T12:51:26.956Z,92.45
2022-09-24T12:52:26.971Z,92.35